createdAt,value
2019-03-01T00:00:21.893Z,51.80
2019-03-01T00:02:53.152Z,51.50
2019-03-01T00:05:50.142Z,51.87
2019-03-01T00:08:23.772Z,51.70
2019-03-01T00:11:18.339Z,51.40
2019-03-01T00:14:44.709Z,51.60
2019-03-01T00:17:29.191Z,51.37
2019-03-01T00:20:26.663Z,51.47
2019-03-01T00:23:13.191Z,51.33
2019-03-01T00:26:17.747Z,51.23
2019-03-01T00:29:17.627Z,51.70
2019-03-01T00:32:36.059Z,51.20
2019-03-01T00:35:41.043Z,51.60
2019-03-01T00:38:53.919Z,51.50
2019-03-01T00:41:59.083Z,51.20
2019-03-01T00:44:41.067Z,51.50
2019-03-01T00:47:10.954Z,51.13
2019-03-01T00:49:40.728Z,51.47
2019-03-01T00:52:11.025Z,51.20
2019-03-01T00:54:40.655Z,51.93
2019-03-01T00:57:10.496Z,51.50
2019-03-01T00:59:40.216Z,51.57
2019-03-01T01:02:09.994Z,51.10
2019-03-01T01:04:40.671Z,51.83
2019-03-01T01:07:10.457Z,51.23
2019-03-01T01:09:40.148Z,51.47
2019-03-01T01:12:10.154Z,51.70
2019-03-01T01:14:39.787Z,51.67
2019-03-01T01:17:09.506Z,51.30
2019-03-01T01:19:39.194Z,51.33
2019-03-01T01:22:08.837Z,51.20
2019-03-01T01:24:38.448Z,51.40
2019-03-01T01:27:08.080Z,51.23
2019-03-01T01:29:37.699Z,51.20
2019-03-01T01:32:07.348Z,51.30
2019-03-01T01:34:36.981Z,51.47
2019-03-01T01:37:06.607Z,51.40
2019-03-01T01:39:36.249Z,51.07
2019-03-01T01:42:05.961Z,51.27
2019-03-01T01:44:35.592Z,51.63
2019-03-01T01:47:05.227Z,51.10
2019-03-01T01:49:35.823Z,51.47
2019-03-01T01:52:05.612Z,51.77
2019-03-01T01:54:35.240Z,51.60
2019-03-01T01:57:04.875Z,51.63
2019-03-01T01:59:34.506Z,51.27
2019-03-01T02:02:04.299Z,51.40
2019-03-01T02:04:34.967Z,51.43
2019-03-01T02:07:05.647Z,51.90
2019-03-01T02:09:36.615Z,51.63
2019-03-01T02:12:06.498Z,51.10
2019-03-01T02:14:36.122Z,51.53
2019-03-01T02:17:05.835Z,51.47
2019-03-01T02:19:35.471Z,51.20
2019-03-01T02:22:05.178Z,51.63
2019-03-01T02:24:34.816Z,52.07
2019-03-01T02:27:23.606Z,50.83
2019-03-01T02:29:53.373Z,50.90
2019-03-01T02:32:36.748Z,51.33
2019-03-01T02:35:08.184Z,50.97
2019-03-01T02:37:37.878Z,51.07
2019-03-01T02:40:08.656Z,51.10
2019-03-01T02:42:38.433Z,51.20
2019-03-01T02:45:09.992Z,50.93
2019-03-01T02:47:39.631Z,50.90
2019-03-01T02:50:11.155Z,50.90
2019-03-01T02:52:40.873Z,50.67
2019-03-01T02:55:11.756Z,51.13
2019-03-01T02:57:41.468Z,50.57
2019-03-01T03:00:16.737Z,50.40
2019-03-01T03:02:46.446Z,51.10
2019-03-01T03:05:16.232Z,51.00
2019-03-01T03:07:59.947Z,50.90
2019-03-01T03:10:29.672Z,50.93
2019-03-01T03:13:01.759Z,50.77
2019-03-01T03:15:34.035Z,50.40
2019-03-01T03:18:03.744Z,50.70
2019-03-01T03:20:33.547Z,50.83
2019-03-01T03:23:03.278Z,50.70
2019-03-01T03:25:33.040Z,50.57
2019-03-01T03:28:02.667Z,50.50
2019-03-01T03:30:32.440Z,50.40
2019-03-01T03:33:02.083Z,50.90
2019-03-01T03:35:31.702Z,50.57
2019-03-01T03:38:01.369Z,50.87
2019-03-01T03:40:31.187Z,50.70
2019-03-01T03:43:00.832Z,51.00
2019-03-01T03:45:30.528Z,50.80
2019-03-01T03:48:00.168Z,50.37
2019-03-01T03:50:29.797Z,51.00
2019-03-01T03:52:59.459Z,51.00
2019-03-01T03:55:29.228Z,50.67
2019-03-01T03:57:59.011Z,50.90
2019-03-01T04:00:28.791Z,50.83
2019-03-01T04:02:58.459Z,50.70
2019-03-01T04:05:29.140Z,51.10
2019-03-01T04:07:58.856Z,50.60
2019-03-01T04:10:28.555Z,50.90
2019-03-01T04:12:58.194Z,50.67
2019-03-01T04:15:27.826Z,50.93
2019-03-01T04:17:57.459Z,51.07
2019-03-01T04:20:27.176Z,50.57
2019-03-01T04:22:56.803Z,50.73
2019-03-01T04:25:26.440Z,50.43
2019-03-01T04:27:56.064Z,50.33
2019-03-01T04:30:25.776Z,50.67
2019-03-01T04:32:55.399Z,51.10
2019-03-01T04:35:25.052Z,51.10
2019-03-01T04:37:54.737Z,51.33
2019-03-01T04:40:24.382Z,51.17
2019-03-01T04:42:54.007Z,51.10
2019-03-01T04:45:23.643Z,51.00
2019-03-01T04:47:53.276Z,51.10
2019-03-01T04:50:22.920Z,51.20
2019-03-01T04:52:52.560Z,51.03
2019-03-01T04:55:25.712Z,50.70
2019-03-01T04:57:55.383Z,50.80
2019-03-01T05:00:25.287Z,50.50
2019-03-01T05:02:54.916Z,50.80
2019-03-01T05:05:24.640Z,50.47
2019-03-01T05:07:54.335Z,51.03
2019-03-01T05:10:23.974Z,50.87
2019-03-01T05:12:53.885Z,50.90
2019-03-01T05:15:23.791Z,50.73
2019-03-01T05:17:53.406Z,50.83
2019-03-01T05:20:23.051Z,50.37
2019-03-01T05:22:52.691Z,50.57
2019-03-01T05:25:22.392Z,50.60
2019-03-01T05:27:52.023Z,51.07
2019-03-01T05:30:21.669Z,50.60
2019-03-01T05:32:51.291Z,50.73
2019-03-01T05:35:20.926Z,50.63
2019-03-01T05:37:50.620Z,50.80
2019-03-01T05:40:20.329Z,50.67
2019-03-01T05:42:49.954Z,50.70
2019-03-01T05:45:21.656Z,50.73
2019-03-01T05:47:51.311Z,50.83
2019-03-01T05:50:20.961Z,50.27
2019-03-01T05:52:50.579Z,50.47
2019-03-01T05:55:20.304Z,51.10
2019-03-01T05:58:25.504Z,50.57
2019-03-01T06:00:55.856Z,50.50
2019-03-01T06:04:10.523Z,50.83
2019-03-01T06:06:58.741Z,50.40
2019-03-01T06:09:34.399Z,50.57
2019-03-01T06:12:42.619Z,50.47
2019-03-01T06:16:02.704Z,50.27
2019-03-01T06:19:08.801Z,50.43
2019-03-01T06:22:08.231Z,50.47
2019-03-01T06:25:17.919Z,50.60
2019-03-01T06:28:12.012Z,50.10
2019-03-01T06:31:31.924Z,50.30
2019-03-01T06:34:35.471Z,51.07
2019-03-01T06:37:36.289Z,51.07
2019-03-01T06:40:45.115Z,51.43
2019-03-01T06:43:54.259Z,50.97
2019-03-01T06:47:08.618Z,51.83
2019-03-01T06:49:56.033Z,50.33
2019-03-01T06:52:25.784Z,50.47
2019-03-01T06:54:55.490Z,50.60
2019-03-01T06:57:25.135Z,50.83
2019-03-01T06:59:54.766Z,50.57
2019-03-01T07:02:30.681Z,51.17
2019-03-01T07:05:00.314Z,50.77
2019-03-01T07:07:29.956Z,51.23
2019-03-01T07:09:59.594Z,51.03
2019-03-01T07:12:29.221Z,50.93
2019-03-01T07:14:58.851Z,50.57
2019-03-01T07:17:28.552Z,50.93
2019-03-01T07:19:58.187Z,50.40
2019-03-01T07:22:27.808Z,51.13
2019-03-01T07:24:58.506Z,51.50
2019-03-01T07:27:28.203Z,51.30
2019-03-01T07:29:57.847Z,51.77
2019-03-01T07:32:27.479Z,51.80
2019-03-01T07:34:57.106Z,51.37
2019-03-01T07:37:26.750Z,51.77
2019-03-01T07:39:56.371Z,51.17
2019-03-01T07:42:26.018Z,51.17
2019-03-01T07:44:55.649Z,51.70
2019-03-01T07:47:25.292Z,50.87
2019-03-01T07:49:54.915Z,51.27
2019-03-01T07:52:24.557Z,51.00
2019-03-01T07:54:54.188Z,51.17
2019-03-01T07:57:23.830Z,50.93
2019-03-01T07:59:53.535Z,50.97
2019-03-01T08:02:23.173Z,51.07
2019-03-01T08:04:52.799Z,50.57
2019-03-01T08:07:23.579Z,53.60
2019-03-01T08:09:54.249Z,53.30
2019-03-01T08:12:24.052Z,53.63
2019-03-01T08:14:53.690Z,53.07
2019-03-01T08:17:23.412Z,54.50
2019-03-01T08:19:54.896Z,53.73
2019-03-01T08:22:25.115Z,50.57
2019-03-01T08:24:55.572Z,50.67
2019-03-01T08:27:25.434Z,50.87
2019-03-01T08:29:55.109Z,50.93
2019-03-01T08:32:27.431Z,50.77
2019-03-01T08:34:56.078Z,50.77
2019-03-01T08:37:25.719Z,51.03
2019-03-01T08:39:55.358Z,50.50
2019-03-01T08:42:25.003Z,51.00
2019-03-01T08:44:58.006Z,50.70
2019-03-01T08:47:25.958Z,50.63
2019-03-01T08:49:55.587Z,50.50
2019-03-01T08:52:26.195Z,50.80
2019-03-01T08:55:00.379Z,50.57
2019-03-01T08:57:27.528Z,51.00
2019-03-01T08:59:57.158Z,50.77
2019-03-01T09:02:26.792Z,51.77
2019-03-01T09:04:56.433Z,50.80
2019-03-01T09:07:27.112Z,50.50
2019-03-01T09:09:58.063Z,51.07
2019-03-01T09:12:27.790Z,50.93
2019-03-01T09:14:57.493Z,50.80
2019-03-01T09:17:28.091Z,50.43
2019-03-01T09:20:00.210Z,50.83
2019-03-01T09:22:29.055Z,51.90
2019-03-01T09:24:58.706Z,51.80
2019-03-01T09:27:30.314Z,52.23
2019-03-01T09:30:03.408Z,52.20
2019-03-01T09:32:33.819Z,52.27
2019-03-01T09:35:19.918Z,52.53
2019-03-01T09:37:49.563Z,51.67
2019-03-01T09:40:19.276Z,51.57
2019-03-01T09:42:51.296Z,51.67
2019-03-01T09:45:20.475Z,51.00
2019-03-01T09:47:50.390Z,51.37
2019-03-01T09:50:20.096Z,51.57
2019-03-01T09:52:49.723Z,51.50
2019-03-01T09:55:19.351Z,51.53
2019-03-01T09:57:48.983Z,51.43
2019-03-01T10:00:20.284Z,51.10
2019-03-01T10:02:50.094Z,51.27
2019-03-01T10:05:19.710Z,51.07
2019-03-01T10:07:49.491Z,52.47
2019-03-01T10:10:21.070Z,51.10
2019-03-01T10:12:50.763Z,51.30
2019-03-01T10:15:20.467Z,51.60
2019-03-01T10:17:50.143Z,51.47
2019-03-01T10:20:19.840Z,51.77
2019-03-01T10:22:49.484Z,52.57
2019-03-01T10:25:19.307Z,53.47
2019-03-01T10:27:49.127Z,51.97
2019-03-01T10:30:20.155Z,52.23
2019-03-01T10:32:49.896Z,51.57
2019-03-01T10:35:19.667Z,51.53
2019-03-01T10:37:49.333Z,52.10
2019-03-01T10:40:19.436Z,51.73
2019-03-01T10:42:49.075Z,51.40
2019-03-01T10:45:20.892Z,51.00
2019-03-01T10:47:50.608Z,52.43
2019-03-01T10:50:20.320Z,51.87
2019-03-01T10:52:50.038Z,51.87
2019-03-01T10:55:19.750Z,51.57
2019-03-01T10:57:49.627Z,51.80
2019-03-01T11:00:21.507Z,51.53
2019-03-01T11:02:51.252Z,51.43
2019-03-01T11:05:21.144Z,52.10
2019-03-01T11:07:51.547Z,51.80
2019-03-01T11:10:26.516Z,51.80
2019-03-01T11:12:56.233Z,51.10
2019-03-01T11:15:25.945Z,51.03
2019-03-01T11:17:55.576Z,51.00
2019-03-01T11:20:25.455Z,51.37
2019-03-01T11:22:55.095Z,51.13
2019-03-01T11:25:25.897Z,51.23
2019-03-01T11:28:22.362Z,51.33
2019-03-01T11:30:52.003Z,51.07
2019-03-01T11:33:21.652Z,51.40
2019-03-01T11:35:51.352Z,51.13
2019-03-01T11:38:21.011Z,51.33
2019-03-01T11:40:50.667Z,51.17
2019-03-01T11:43:20.307Z,51.43
2019-03-01T11:45:49.936Z,51.30
2019-03-01T11:48:19.590Z,51.77
2019-03-01T11:50:49.214Z,50.87
2019-03-01T11:53:18.955Z,51.10
2019-03-01T11:55:48.579Z,50.77
2019-03-01T11:58:18.295Z,51.30
2019-03-01T12:00:52.402Z,52.80
2019-03-01T12:03:19.279Z,53.70
2019-03-01T12:05:51.054Z,53.83
2019-03-01T12:08:20.689Z,53.10
2019-03-01T12:10:51.301Z,53.47
2019-03-01T12:13:20.941Z,53.87
2019-03-01T12:15:50.638Z,51.10
2019-03-01T12:18:20.276Z,51.63
2019-03-01T12:20:49.913Z,50.80
2019-03-01T12:23:19.556Z,51.73
2019-03-01T12:25:49.188Z,51.20
2019-03-01T12:28:18.827Z,51.97
2019-03-01T12:30:48.459Z,51.47
2019-03-01T12:33:18.099Z,51.10
2019-03-01T12:35:47.726Z,51.23
2019-03-01T12:38:18.343Z,51.33
2019-03-01T12:40:47.987Z,51.53
2019-03-01T12:43:17.636Z,51.37
2019-03-01T12:45:47.262Z,51.27
2019-03-01T12:48:16.931Z,51.70
2019-03-01T12:50:46.559Z,51.10
2019-03-01T12:53:16.201Z,51.00
2019-03-01T12:55:45.836Z,50.90
2019-03-01T13:01:52.693Z,51.00
2019-03-01T13:04:23.343Z,51.03
2019-03-01T13:06:52.975Z,51.60
2019-03-01T13:09:23.406Z,51.47
2019-03-01T13:11:53.936Z,50.87
2019-03-01T13:14:23.568Z,51.13
2019-03-01T13:16:54.240Z,51.37
2019-03-01T13:19:26.117Z,51.80
2019-03-01T13:21:55.303Z,52.40
2019-03-01T13:24:24.967Z,52.37
2019-03-01T13:26:54.583Z,50.80
2019-03-01T13:29:24.229Z,51.20
2019-03-01T13:31:54.679Z,51.03
2019-03-01T13:34:26.728Z,51.47
2019-03-01T13:36:56.512Z,51.70
2019-03-01T13:39:26.147Z,51.23
2019-03-01T13:41:56.039Z,51.57
2019-03-01T13:44:25.699Z,51.93
2019-03-01T13:46:55.343Z,51.47
2019-03-01T13:49:26.754Z,51.27
2019-03-01T13:51:56.384Z,51.70
2019-03-01T13:54:26.035Z,51.27
2019-03-01T13:56:55.742Z,51.63
2019-03-01T13:59:25.374Z,51.77
2019-03-01T14:01:55.078Z,51.20
2019-03-01T14:04:24.715Z,50.90
2019-03-01T14:06:54.410Z,51.03
2019-03-01T14:09:27.206Z,50.93
2019-03-01T14:11:55.942Z,50.87
2019-03-01T14:14:27.845Z,50.83
2019-03-01T14:16:57.720Z,50.67
2019-03-01T14:19:27.351Z,50.90
2019-03-01T14:21:56.992Z,51.33
2019-03-01T14:24:29.566Z,50.93
2019-03-01T14:26:59.172Z,50.60
2019-03-01T14:29:29.016Z,50.43
2019-03-01T14:31:58.717Z,51.27
2019-03-01T14:34:28.348Z,50.87
2019-03-01T14:36:58.060Z,50.90
2019-03-01T14:39:27.767Z,50.37
2019-03-01T14:41:57.422Z,50.43
2019-03-01T14:44:27.318Z,50.20
2019-03-01T14:46:57.076Z,50.40
2019-03-01T14:49:26.820Z,50.90
2019-03-01T14:51:56.524Z,50.53
2019-03-01T14:54:26.237Z,50.27
2019-03-01T14:56:59.576Z,51.30
2019-03-01T14:59:50.951Z,50.43
2019-03-01T15:02:40.635Z,50.60
2019-03-01T15:05:17.131Z,50.33
2019-03-01T15:07:40.438Z,50.40
2019-03-01T15:10:11.127Z,50.67
2019-03-01T15:12:40.762Z,50.10
2019-03-01T15:15:11.581Z,50.87
2019-03-01T15:17:43.937Z,50.70
2019-03-01T15:20:16.717Z,50.80
2019-03-01T15:22:45.525Z,50.83
2019-03-01T15:25:16.146Z,50.40
2019-03-01T15:27:45.852Z,50.00
2019-03-01T15:30:15.768Z,50.37
2019-03-01T15:32:46.295Z,50.77
2019-03-01T15:35:15.934Z,50.77
2019-03-01T15:37:45.584Z,50.10
2019-03-01T15:40:15.316Z,50.20
2019-03-01T15:42:44.967Z,50.20
2019-03-01T15:45:14.784Z,50.77
2019-03-01T15:47:44.438Z,50.90
2019-03-01T15:50:14.371Z,50.67
2019-03-01T15:52:45.591Z,50.33
2019-03-01T15:55:16.396Z,50.50
2019-03-01T15:57:46.043Z,50.50
2019-03-01T16:00:16.238Z,50.60
2019-03-01T16:02:45.955Z,50.23
2019-03-01T16:05:15.738Z,50.77
2019-03-01T16:07:45.454Z,50.50
2019-03-01T16:10:15.251Z,50.50
2019-03-01T16:12:44.887Z,49.80
2019-03-01T16:15:14.697Z,50.23
2019-03-01T16:17:44.338Z,50.40
2019-03-01T16:20:15.215Z,49.90
2019-03-01T16:22:44.869Z,50.23
2019-03-01T16:25:17.166Z,50.37
2019-03-01T16:27:47.243Z,50.47
2019-03-01T16:30:17.518Z,50.47
2019-03-01T16:32:50.388Z,50.47
2019-03-01T16:35:19.453Z,50.73
2019-03-01T16:37:50.283Z,50.43
2019-03-01T16:40:20.019Z,50.53
2019-03-01T16:42:53.405Z,50.47
2019-03-01T16:45:21.956Z,50.43
2019-03-01T16:47:51.685Z,50.13
2019-03-01T16:50:21.463Z,50.30
2019-03-01T16:52:51.111Z,50.03
2019-03-01T16:55:20.884Z,50.23
2019-03-01T16:57:52.410Z,50.20
2019-03-01T17:00:22.013Z,50.10
2019-03-01T17:02:51.815Z,50.50
2019-03-01T17:05:21.727Z,50.47
2019-03-01T17:07:51.375Z,50.33
2019-03-01T17:10:21.783Z,50.10
2019-03-01T17:12:51.992Z,50.03
2019-03-01T17:15:22.515Z,50.13
2019-03-01T17:17:52.306Z,50.17
2019-03-01T17:20:21.947Z,50.17
2019-03-01T17:22:51.763Z,49.97
2019-03-01T17:25:23.399Z,50.27
2019-03-01T17:27:52.879Z,50.03
2019-03-01T17:30:22.906Z,50.03
2019-03-01T17:32:52.547Z,49.57
2019-03-01T17:35:22.168Z,50.10
2019-03-01T17:37:51.821Z,51.20
2019-03-01T17:40:21.455Z,49.77
2019-03-01T17:42:53.142Z,49.80
2019-03-01T17:45:22.528Z,50.20
2019-03-01T17:47:52.361Z,50.07
2019-03-01T17:50:21.983Z,49.83
2019-03-01T17:52:51.686Z,50.20
2019-03-01T17:55:21.350Z,50.13
2019-03-01T17:57:50.976Z,50.40
2019-03-01T18:00:25.583Z,50.40
2019-03-01T18:02:56.223Z,50.23
2019-03-01T18:05:25.939Z,50.07
2019-03-01T18:07:55.646Z,50.03
2019-03-01T18:10:28.767Z,50.43
2019-03-01T18:12:57.742Z,50.70
2019-03-01T18:15:27.444Z,50.37
2019-03-01T18:17:57.087Z,50.63
2019-03-01T18:20:26.790Z,50.33
2019-03-01T18:22:59.317Z,50.63
2019-03-01T18:25:27.894Z,50.73
2019-03-01T18:27:57.532Z,50.20
2019-03-01T18:30:27.287Z,50.43
2019-03-01T18:32:56.932Z,50.43
2019-03-01T18:35:26.630Z,50.13
2019-03-01T18:37:56.354Z,50.63
2019-03-01T18:40:26.059Z,50.37
2019-03-01T18:42:55.686Z,50.47
2019-03-01T18:45:25.978Z,50.57
2019-03-01T18:47:55.751Z,51.30
2019-03-01T18:50:27.742Z,51.33
2019-03-01T18:52:58.431Z,50.63
2019-03-01T18:55:28.144Z,51.23
2019-03-01T18:57:57.840Z,50.67
2019-03-01T19:00:32.481Z,50.13
2019-03-01T19:03:04.297Z,49.80
2019-03-01T19:05:32.589Z,50.97
2019-03-01T19:08:04.643Z,50.07
2019-03-01T19:10:33.723Z,51.20
2019-03-01T19:13:03.439Z,50.33
2019-03-01T19:15:33.319Z,51.27
2019-03-01T19:18:02.985Z,50.03
2019-03-01T19:20:34.049Z,51.10
2019-03-01T19:23:05.237Z,50.10
2019-03-01T19:25:34.939Z,51.70
2019-03-01T19:28:04.699Z,50.50
2019-03-01T19:30:34.416Z,51.07
2019-03-01T19:33:04.197Z,50.00
2019-03-01T19:35:33.821Z,50.97
2019-03-01T19:38:03.464Z,50.20
2019-03-01T19:40:33.170Z,51.37
2019-03-01T19:43:02.799Z,50.23
2019-03-01T19:45:32.418Z,50.13
2019-03-01T19:48:03.439Z,50.50
2019-03-01T19:50:33.256Z,50.43
2019-03-01T19:53:03.032Z,50.47
2019-03-01T19:55:32.664Z,49.73
2019-03-01T19:58:02.296Z,50.33
2019-03-01T20:00:32.023Z,50.00
2019-03-01T20:03:01.741Z,50.33
2019-03-01T20:05:33.032Z,50.70
2019-03-01T20:08:02.994Z,50.23
2019-03-01T20:10:32.713Z,50.60
2019-03-01T20:13:02.415Z,49.90
2019-03-01T20:15:32.291Z,50.00
2019-03-01T20:18:02.004Z,50.00
2019-03-01T20:20:33.532Z,50.00
2019-03-01T20:23:03.125Z,49.67
2019-03-01T20:25:32.773Z,49.97
2019-03-01T20:28:02.495Z,49.93
2019-03-01T20:30:32.232Z,50.00
2019-03-01T20:33:02.916Z,50.20
2019-03-01T20:35:32.578Z,50.07
2019-03-01T20:38:04.339Z,50.30
2019-03-01T20:40:33.623Z,50.23
2019-03-01T20:43:06.872Z,50.17
2019-03-01T20:45:34.952Z,49.90
2019-03-01T20:48:04.678Z,50.30
2019-03-01T20:50:36.427Z,51.00
2019-03-01T20:53:05.810Z,50.37
2019-03-01T20:55:37.050Z,50.33
2019-03-01T20:58:06.814Z,50.67
2019-03-01T21:00:36.540Z,50.13
2019-03-01T21:03:06.378Z,49.93
2019-03-01T21:05:36.011Z,49.93
2019-03-01T21:08:06.619Z,49.83
2019-03-01T21:10:36.434Z,50.07
2019-03-01T21:13:08.762Z,50.50
2019-03-01T21:15:37.766Z,50.07
2019-03-01T21:18:08.131Z,50.10
2019-03-01T21:20:37.782Z,50.00
2019-03-01T21:23:07.510Z,49.80
2019-03-01T21:25:39.789Z,49.80
2019-03-01T21:28:08.552Z,50.67
2019-03-01T21:30:38.348Z,49.83
2019-03-01T21:33:07.974Z,50.30
2019-03-01T21:35:37.606Z,50.33
2019-03-01T21:38:07.304Z,52.87
2019-03-01T21:40:36.963Z,53.03
2019-03-01T21:43:06.591Z,51.60
2019-03-01T21:45:36.304Z,52.23
2019-03-01T21:48:07.115Z,52.40
2019-03-01T21:50:38.638Z,52.10
2019-03-01T21:53:08.095Z,49.80
2019-03-01T21:55:37.811Z,50.43
2019-03-01T21:58:07.738Z,52.57
2019-03-01T22:00:37.540Z,53.77
2019-03-01T22:03:07.194Z,52.50
2019-03-01T22:05:36.831Z,50.73
2019-03-01T22:08:09.580Z,49.93
2019-03-01T22:10:38.891Z,50.10
2019-03-01T22:13:08.667Z,49.70
2019-03-01T22:15:38.304Z,49.90
2019-03-01T22:18:07.929Z,49.57
2019-03-01T22:20:37.567Z,49.83
2019-03-01T22:23:09.820Z,50.07
2019-03-01T22:25:39.072Z,50.00
2019-03-01T22:28:08.735Z,50.60
2019-03-01T22:30:38.454Z,50.30
2019-03-01T22:33:08.130Z,50.30
2019-03-01T22:35:40.585Z,49.70
2019-03-01T22:38:09.095Z,50.00
2019-03-01T22:40:38.738Z,49.93
2019-03-01T22:43:08.690Z,50.40
2019-03-01T22:45:38.378Z,49.93
2019-03-01T22:48:11.589Z,49.97
2019-03-01T22:50:39.476Z,49.63
2019-03-01T22:53:09.243Z,49.37
2019-03-01T22:55:38.886Z,49.70
2019-03-01T22:58:09.486Z,49.57
2019-03-01T23:01:45.515Z,49.40
2019-03-01T23:04:15.136Z,49.30
2019-03-01T23:06:47.597Z,49.37
2019-03-01T23:09:17.059Z,49.50
2019-03-01T23:11:46.847Z,49.47
2019-03-01T23:14:16.471Z,49.77
2019-03-01T23:16:46.123Z,49.40
2019-03-01T23:19:16.096Z,49.60
2019-03-01T23:21:46.595Z,49.50
2019-03-01T23:24:16.231Z,49.67
2019-03-01T23:26:45.939Z,49.60
2019-03-01T23:29:18.755Z,49.63
2019-03-01T23:31:46.971Z,49.40
2019-03-01T23:34:16.631Z,49.50
2019-03-01T23:36:46.277Z,49.53
2019-03-01T23:39:16.927Z,49.40
2019-03-01T23:41:47.253Z,49.60
2019-03-01T23:44:17.931Z,49.70
2019-03-01T23:46:47.575Z,49.77
2019-03-01T23:49:17.247Z,49.50
2019-03-01T23:51:46.886Z,49.07
2019-03-01T23:54:16.511Z,49.40
2019-03-01T23:56:46.227Z,49.40
2019-03-01T23:59:15.867Z,49.53
